East Shoals, Indiana
Current Conditions -  °F | °C
As of 8:15 AM on Sunday 21 Dec 2014 (Local Time) from KDCY Reporting Station
Haze Haze  
Wind Chill: -3°   Ceiling: Unl
Heat Index: -3°   Visibility: 4mi
Dew Point: -5°   Wind: 3mph
Humidity: 87%   Direction: 100°E
Pressure: 30.28"   Gusts: NA
Location:  38.6262°N, 86.7615°W
Report Text: KDCY 211415Z AUTO 10003KT 4SM BR CLR M03/M04 A3028 RMK AO2 T10261045
Loading
Personal Weather Stations






























Interactive Weather Map New forecast layout! Learn more

10-Day Weather Forecast

Advertisements
Track Severe Weather on mobile